Weather at Milgun Airport

Public forecast

Using degrees Celsius for public forecast. Weather courtesy of forecast.io.

Closest aviation weather report (METAR) to Milgun Airport

Closest report is Learmonth Airport, 289.3 nm (535.7 km) NW.

2024/05/18 23:00 (retrieved 34 minutes ago)

YPLM 182300Z AUTO 07006KT 9999 // NCD 20/12 Q1019 RF000/0000

Closest aviation forecast (TAF) to Milgun Airport

Closest forecast is Learmonth Airport, 289.3 nm (535.7 km) NW.

2024/05/18 18:36 (retrieved 5 hours ago)

TAF YPLM 181702Z 1818/1918 13007KT CAVOK FM182000 09011KT CAVOK BECMG 1904/1905 03010KT CAVOK BECMG 1911/1912 22008KT CAVOK FM191700 12008KT CAVOK